Time;durP1;ratioP1;P1;durP2;ratioP2;P2;SDS_P1;SDS_P2;PMS_P1;PMS_P2;Temp;Humidity;BMP_temperature;BMP_pressure;BME280_temperature;BME280_humidity;BME280_pressure;Samples;Min_cycle;Max_cycle;Signal;HPM_P1;HPM_P2
2021/01/11 00:01:23;;;;;;;38.08;18.67;;;1.50;99.90;;;;;;5069879;28;20697;-84
2021/01/11 00:03:50;;;;;;;29.63;17.77;;;1.50;99.90;;;;;;5069702;28;20192;-84
2021/01/11 00:06:16;;;;;;;35.03;18.90;;;1.40;99.90;;;;;;5077159;28;20191;-84
2021/01/11 00:08:45;;;;;;;26.27;16.33;;;1.40;99.90;;;;;;5077223;28;20266;-84
2021/01/11 00:11:12;;;;;;;32.95;18.10;;;1.40;99.90;;;;;;5076921;28;20649;-84
2021/01/11 00:13:40;;;;;;;28.02;18.60;;;1.40;99.90;;;;;;5079424;28;20205;-84
2021/01/11 00:16:06;;;;;;;31.88;19.40;;;1.40;99.90;;;;;;5079478;28;20193;-84
2021/01/11 00:18:32;;;;;;;25.83;16.05;;;1.40;99.90;;;;;;5077893;28;20216;-85
2021/01/11 00:20:59;;;;;;;24.95;17.00;;;1.40;99.90;;;;;;5079164;28;20192;-86
2021/01/11 00:23:25;;;;;;;33.72;19.42;;;1.40;99.90;;;;;;5077826;28;20646;-85
2021/01/11 00:25:52;;;;;;;30.42;19.77;;;1.50;99.90;;;;;;5078253;28;20242;-85
2021/01/11 00:28:18;;;;;;;31.48;19.10;;;1.50;99.90;;;;;;5078093;28;20232;-85
2021/01/11 00:30:45;;;;;;;27.00;14.68;;;1.50;99.90;;;;;;5071245;28;20229;-84
2021/01/11 00:33:11;;;;;;;33.20;19.20;;;1.50;99.90;;;;;;5068198;28;20191;-85
2021/01/11 00:35:37;;;;;;;34.60;19.95;;;1.50;99.90;;;;;;5077465;28;20297;-83
2021/01/11 00:38:03;;;;;;;27.80;17.00;;;1.50;99.90;;;;;;5077008;28;20212;-84
2021/01/11 00:40:30;;;;;;;32.20;19.15;;;1.50;99.90;;;;;;5077014;28;20196;-84
2021/01/11 00:42:57;;;;;;;31.45;16.85;;;1.60;99.90;;;;;;5077363;28;20215;-84
2021/01/11 00:45:23;;;;;;;29.10;18.15;;;1.50;99.90;;;;;;5077119;28;20197;-85
2021/01/11 00:47:49;;;;;;;33.67;16.95;;;1.50;99.90;;;;;;5079514;28;20214;-85
2021/01/11 00:50:15;;;;;;;27.85;18.42;;;1.50;99.90;;;;;;5080909;28;20196;-82
2021/01/11 00:52:42;;;;;;;29.60;16.67;;;1.50;99.90;;;;;;5081226;28;20191;-84
2021/01/11 00:55:09;;;;;;;28.67;15.30;;;1.50;99.90;;;;;;5080566;28;20199;-83
2021/01/11 00:57:35;;;;;;;26.45;16.48;;;1.50;99.90;;;;;;5081910;28;20195;-85
2021/01/11 01:00:04;;;;;;;29.45;17.98;;;1.50;99.90;;;;;;5080116;28;20559;-85
2021/01/11 01:02:31;;;;;;;31.00;19.42;;;1.60;99.90;;;;;;5061082;28;20196;-84
2021/01/11 01:04:57;;;;;;;29.80;18.13;;;1.60;99.90;;;;;;5077879;28;20182;-84
2021/01/11 01:07:23;;;;;;;38.10;19.90;;;1.50;99.90;;;;;;5080329;28;20212;-85
2021/01/11 01:09:49;;;;;;;29.52;17.30;;;1.60;99.90;;;;;;5080923;28;20254;-84
2021/01/11 01:12:15;;;;;;;30.38;18.98;;;1.60;99.90;;;;;;5079897;28;20569;-81
2021/01/11 01:14:42;;;;;;;42.35;18.88;;;1.50;99.90;;;;;;5080124;28;20257;-83
2021/01/11 01:17:09;;;;;;;32.13;18.55;;;1.50;99.90;;;;;;5080172;28;20194;-84
2021/01/11 01:19:35;;;;;;;32.30;17.70;;;1.50;99.90;;;;;;5079629;28;20229;-84
2021/01/11 01:22:01;;;;;;;30.33;17.85;;;1.50;99.90;;;;;;5079590;28;20566;-85
2021/01/11 01:24:28;;;;;;;32.60;17.75;;;1.50;99.90;;;;;;5079546;28;20200;-84
2021/01/11 01:26:54;;;;;;;31.48;20.75;;;1.50;99.90;;;;;;5079338;28;20212;-83
2021/01/11 01:29:20;;;;;;;35.80;19.65;;;1.50;99.90;;;;;;5079565;28;20858;-84
2021/01/11 01:31:46;;;;;;;28.30;19.40;;;1.50;99.90;;;;;;5071406;28;20193;-83
2021/01/11 01:34:13;;;;;;;38.78;19.85;;;1.50;99.90;;;;;;5070839;28;20274;-83
2021/01/11 01:36:39;;;;;;;34.78;22.40;;;1.40;99.90;;;;;;5079772;28;20188;-84
2021/01/11 01:39:06;;;;;;;35.15;20.25;;;1.50;99.90;;;;;;5079571;28;20224;-84
2021/01/11 01:41:32;;;;;;;32.97;17.45;;;1.50;99.90;;;;;;5079264;28;20200;-83
2021/01/11 01:43:58;;;;;;;31.20;18.17;;;1.50;99.90;;;;;;5079870;28;20204;-84
2021/01/11 01:46:30;;;;;;;36.80;20.83;;;1.50;99.90;;;;;;5078501;28;20223;-81
2021/01/11 01:48:56;;;;;;;29.75;18.80;;;1.40;99.90;;;;;;5079450;28;20216;-84
2021/01/11 01:51:24;;;;;;;35.70;21.27;;;1.40;99.90;;;;;;5079239;28;20192;-84
2021/01/11 01:53:50;;;;;;;35.47;21.42;;;1.50;99.90;;;;;;5078927;28;20654;-85
2021/01/11 01:56:17;;;;;;;28.52;17.88;;;1.50;99.90;;;;;;5078651;28;20274;-84
2021/01/11 01:58:45;;;;;;;36.80;22.13;;;1.50;99.90;;;;;;5077623;28;20215;-83
2021/01/11 02:01:11;;;;;;;28.73;18.00;;;1.40;99.90;;;;;;5076308;28;20537;-85
2021/01/11 02:03:38;;;;;;;39.03;18.52;;;1.40;99.90;;;;;;5067082;28;20215;-83
2021/01/11 02:06:04;;;;;;;35.70;21.15;;;1.40;99.90;;;;;;5058737;28;20195;-84
2021/01/11 02:08:37;;;;;;;33.88;21.05;;;1.40;99.90;;;;;;5059112;28;20232;-83
2021/01/11 02:11:14;;;;;;;37.90;20.95;;;1.40;99.90;;;;;;5059253;28;20556;-84
2021/01/11 02:13:58;;;;;;;41.17;22.40;;;1.40;99.90;;;;;;5061122;28;20288;-84
2021/01/11 02:16:34;;;;;;;33.90;21.65;;;1.40;99.90;;;;;;5059213;28;20197;-84
2021/01/11 02:19:16;;;;;;;36.25;20.50;;;1.40;99.90;;;;;;5060275;28;20219;-83
2021/01/11 02:22:03;;;;;;;39.95;23.38;;;1.40;99.90;;;;;;5059536;28;20199;-83
2021/01/11 02:25:10;;;;;;;44.30;23.48;;;1.40;99.90;;;;;;5059392;28;20194;-82
2021/01/11 02:27:43;;;;;;;36.33;22.40;;;1.40;99.90;;;;;;5058901;28;20248;-83
2021/01/11 02:30:25;;;;;;;46.50;24.58;;;1.40;99.90;;;;;;5059650;28;20205;-84
2021/01/11 02:32:56;;;;;;;42.15;25.45;;;1.40;99.90;;;;;;5059070;28;20185;-83
2021/01/11 02:35:23;;;;;;;32.22;19.13;;;1.40;99.90;;;;;;5080186;28;20195;-84
2021/01/11 02:37:51;;;;;;;43.53;25.35;;;1.40;99.90;;;;;;5079523;28;20338;-84
2021/01/11 02:40:17;;;;;;;40.78;26.05;;;1.40;99.90;;;;;;5079300;28;20213;-84
2021/01/11 02:42:43;;;;;;;53.97;28.30;;;1.30;99.90;;;;;;5079330;28;20194;-85
2021/01/11 02:45:12;;;;;;;49.45;27.30;;;1.30;99.90;;;;;;5079619;28;20188;-85
2021/01/11 02:47:59;;;;;;;43.42;27.15;;;1.30;99.90;;;;;;5078866;28;20312;-84
2021/01/11 02:50:26;;;;;;;43.05;20.83;;;1.30;99.90;;;;;;5079017;28;20179;-84
2021/01/11 02:53:06;;;;;;;44.25;25.08;;;1.30;99.90;;;;;;5079023;28;20677;-84
2021/01/11 02:55:45;;;;;;;42.17;27.48;;;1.30;99.90;;;;;;5079333;28;20180;-81
2021/01/11 02:58:19;;;;;;;43.90;26.38;;;1.30;99.90;;;;;;5079105;28;20234;-85
2021/01/11 03:00:48;;;;;;;43.65;24.52;;;1.30;99.90;;;;;;5071310;28;20200;-83
2021/01/11 03:03:17;;;;;;;43.15;25.55;;;1.30;99.90;;;;;;5069601;28;20184;-84
2021/01/11 03:05:44;;;;;;;43.03;24.15;;;1.20;99.90;;;;;;5078468;28;20196;-84
2021/01/11 03:08:10;;;;;;;41.35;24.40;;;1.20;99.90;;;;;;5078631;28;20224;-84
2021/01/11 03:10:36;;;;;;;41.17;24.33;;;1.20;99.90;;;;;;5078550;28;20191;-83
2021/01/11 03:13:03;;;;;;;42.17;25.80;;;1.20;99.90;;;;;;5078263;28;20213;-85
2021/01/11 03:15:29;;;;;;;47.15;25.98;;;1.20;99.90;;;;;;5078471;28;20198;-85
2021/01/11 03:17:56;;;;;;;42.17;25.40;;;1.20;99.90;;;;;;5078204;28;20222;-84
2021/01/11 03:20:22;;;;;;;51.53;27.85;;;1.30;99.90;;;;;;5079112;28;20193;-85
2021/01/11 03:22:49;;;;;;;42.92;25.77;;;1.20;99.90;;;;;;5078244;28;20193;-85
2021/01/11 03:25:15;;;;;;;45.92;26.40;;;1.20;99.90;;;;;;5078288;28;20197;-84
2021/01/11 03:27:41;;;;;;;39.22;21.73;;;1.20;99.90;;;;;;5077609;28;20216;-83
2021/01/11 03:30:08;;;;;;;49.38;28.80;;;1.20;99.90;;;;;;5075415;28;20191;-84
2021/01/11 03:32:34;;;;;;;43.80;26.98;;;1.10;99.90;;;;;;5072068;28;20191;-82
2021/01/11 03:35:02;;;;;;;47.88;27.92;;;1.10;99.90;;;;;;5059557;28;20191;-83
2021/01/11 03:37:28;;;;;;;55.10;28.95;;;1.10;99.90;;;;;;5057653;28;20197;-83
2021/01/11 03:39:54;;;;;;;50.03;28.13;;;1.00;99.90;;;;;;5057351;28;20249;-82
2021/01/11 03:42:21;;;;;;;52.05;28.23;;;1.00;99.90;;;;;;5057618;28;20196;-83
2021/01/11 03:44:47;;;;;;;45.65;26.50;;;0.90;99.90;;;;;;5058032;28;20200;-85
2021/01/11 03:47:13;;;;;;;50.53;30.90;;;1.00;99.90;;;;;;5057164;28;20205;-85
2021/01/11 03:49:39;;;;;;;49.63;29.27;;;1.00;99.90;;;;;;5057477;28;20218;-83
2021/01/11 03:52:06;;;;;;;42.60;28.20;;;1.00;99.90;;;;;;5057184;28;20287;-84
2021/01/11 03:54:33;;;;;;;50.00;30.15;;;1.00;99.90;;;;;;5057587;28;20191;-83
2021/01/11 03:56:59;;;;;;;53.80;31.83;;;1.00;99.90;;;;;;5056750;28;20189;-84
2021/01/11 03:59:25;;;;;;;55.15;31.05;;;1.00;99.90;;;;;;5057121;28;20209;-83
2021/01/11 04:01:52;;;;;;;40.42;23.95;;;0.90;99.90;;;;;;5064969;28;20195;-83
2021/01/11 04:04:19;;;;;;;42.25;22.95;;;0.90;99.90;;;;;;5069521;28;20287;-82
2021/01/11 04:06:45;;;;;;;48.85;28.80;;;0.90;99.90;;;;;;5076445;28;20330;-85
2021/01/11 04:09:12;;;;;;;47.67;25.65;;;0.90;99.90;;;;;;5077355;28;20223;-85
2021/01/11 04:11:38;;;;;;;54.92;31.75;;;0.90;99.90;;;;;;5076853;28;20242;-83
2021/01/11 04:14:05;;;;;;;56.92;31.48;;;0.90;99.90;;;;;;5077250;28;20198;-81
2021/01/11 04:16:31;;;;;;;58.95;32.85;;;0.90;99.90;;;;;;5077032;28;20625;-83
2021/01/11 04:18:57;;;;;;;55.00;32.25;;;0.90;99.90;;;;;;5077202;28;20701;-82
2021/01/11 04:21:24;;;;;;;57.92;32.50;;;0.90;99.90;;;;;;5077854;28;20282;-83
2021/01/11 04:23:50;;;;;;;55.08;30.40;;;0.90;99.90;;;;;;5082010;28;20684;-82
2021/01/11 04:26:17;;;;;;;39.75;21.77;;;0.90;99.90;;;;;;5081364;28;20195;-84
2021/01/11 04:28:43;;;;;;;61.47;33.03;;;0.80;99.90;;;;;;5081915;28;20301;-83
2021/01/11 04:31:10;;;;;;;56.30;31.73;;;0.90;99.90;;;;;;5075747;28;20195;-84
2021/01/11 04:33:36;;;;;;;52.03;29.23;;;0.90;99.90;;;;;;5073090;28;20184;-83
2021/01/11 04:36:03;;;;;;;56.38;33.97;;;0.90;99.90;;;;;;5081605;28;20544;-83
2021/01/11 04:38:29;;;;;;;53.20;29.77;;;1.00;99.90;;;;;;5081424;28;20292;-84
2021/01/11 04:41:01;;;;;;;49.60;30.35;;;1.00;99.90;;;;;;5081461;28;20207;-83
2021/01/11 04:43:29;;;;;;;48.22;28.55;;;1.00;99.90;;;;;;5081335;28;20209;-83
2021/01/11 04:45:58;;;;;;;51.90;31.52;;;1.00;99.90;;;;;;5080408;28;20194;-84
2021/01/11 04:48:24;;;;;;;48.20;30.67;;;1.10;99.90;;;;;;5080983;28;20226;-83
2021/01/11 04:50:50;;;;;;;54.20;31.80;;;1.00;99.90;;;;;;5081471;28;20196;-82
2021/01/11 04:53:19;;;;;;;44.22;26.63;;;1.00;99.90;;;;;;5081335;28;20191;-83
2021/01/11 04:55:46;;;;;;;45.70;28.75;;;1.00;99.90;;;;;;5081362;28;20215;-81
2021/01/11 04:58:13;;;;;;;41.38;27.13;;;1.10;99.90;;;;;;5081884;28;20220;-82
2021/01/11 05:00:42;;;;;;;45.28;27.77;;;1.00;99.90;;;;;;5079147;28;20295;-81
2021/01/11 05:03:10;;;;;;;47.30;28.55;;;0.90;99.90;;;;;;5071522;28;20205;-82
2021/01/11 05:05:39;;;;;;;45.42;29.35;;;0.90;99.90;;;;;;5081378;28;20281;-84
2021/01/11 05:08:07;;;;;;;43.22;27.23;;;0.90;99.90;;;;;;5090885;22;20229;-80
2021/01/11 05:10:35;;;;;;;41.20;23.13;;;0.90;99.90;;;;;;5051474;28;20216;-80
2021/01/11 05:13:03;;;;;;;40.33;24.48;;;0.90;99.90;;;;;;5068529;28;20204;-79
2021/01/11 05:15:31;;;;;;;44.47;25.95;;;0.90;99.90;;;;;;5064618;28;20321;-79
2021/01/11 05:17:59;;;;;;;24.75;15.38;;;0.90;99.90;;;;;;5064905;28;20221;-79
2021/01/11 05:20:27;;;;;;;40.53;23.77;;;0.90;99.90;;;;;;5064075;28;20197;-79
2021/01/11 05:23:07;;;;;;;46.50;28.38;;;0.80;99.90;;;;;;5065140;28;20197;-80
2021/01/11 05:25:36;;;;;;;33.20;17.90;;;0.80;99.90;;;;;;5065221;28;20186;-80
2021/01/11 05:28:07;;;;;;;41.28;24.52;;;0.90;99.90;;;;;;5064550;28;20223;-79
2021/01/11 05:30:36;;;;;;;45.20;24.45;;;0.80;99.90;;;;;;5063614;28;20208;-80
2021/01/11 05:33:03;;;;;;;49.35;27.60;;;0.90;99.90;;;;;;5074542;28;20222;-79
2021/01/11 05:35:30;;;;;;;51.90;28.13;;;0.90;99.90;;;;;;5084888;28;20263;-78
2021/01/11 05:37:58;;;;;;;47.78;27.77;;;0.90;99.90;;;;;;5084254;28;20525;-78
2021/01/11 05:40:26;;;;;;;51.30;29.00;;;0.90;99.90;;;;;;5084492;28;20292;-80
2021/01/11 05:42:54;;;;;;;45.70;25.90;;;1.00;99.90;;;;;;5084644;28;20191;-79
2021/01/11 05:45:22;;;;;;;43.33;25.60;;;0.90;99.90;;;;;;5084941;28;20199;-80
2021/01/11 05:48:04;;;;;;;52.13;29.92;;;0.90;99.90;;;;;;5083794;28;20224;-80
2021/01/11 05:50:36;;;;;;;54.20;30.35;;;0.90;99.90;;;;;;5085142;28;20206;-80
2021/01/11 05:53:02;;;;;;;48.75;28.15;;;0.90;99.90;;;;;;5084949;28;20209;-79
2021/01/11 05:55:30;;;;;;;48.58;26.35;;;0.90;99.90;;;;;;5084110;28;20199;-80
2021/01/11 05:57:59;;;;;;;51.65;29.30;;;0.90;99.90;;;;;;5083845;28;20227;-79
2021/01/11 06:00:27;;;;;;;44.20;25.65;;;0.90;99.90;;;;;;5084540;28;20196;-80
2021/01/11 06:02:54;;;;;;;57.60;31.73;;;0.90;99.90;;;;;;5073091;28;20221;-80
2021/01/11 06:05:23;;;;;;;44.85;26.90;;;1.00;99.90;;;;;;5085064;28;20200;-80
2021/01/11 06:07:50;;;;;;;49.10;26.67;;;1.00;99.90;;;;;;5083899;28;20222;-79
2021/01/11 06:10:18;;;;;;;54.60;28.70;;;1.00;99.90;;;;;;5084560;28;20176;-80
2021/01/11 06:12:46;;;;;;;43.92;24.20;;;1.00;99.90;;;;;;5083855;28;20193;-78
2021/01/11 06:15:14;;;;;;;54.58;29.98;;;1.00;99.90;;;;;;5084013;28;20191;-80
2021/01/11 06:17:42;;;;;;;53.47;29.85;;;1.00;99.90;;;;;;5083030;28;20563;-80
2021/01/11 06:20:12;;;;;;;59.83;29.92;;;1.00;99.90;;;;;;5084761;28;20220;-79
2021/01/11 06:23:06;;;;;;;58.78;28.40;;;1.00;99.90;;;;;;5083927;28;20184;-79
2021/01/11 06:25:34;;;;;;;52.55;29.67;;;1.00;99.90;;;;;;5048184;28;20209;-79
2021/01/11 06:28:01;;;;;;;54.10;28.85;;;1.00;99.90;;;;;;5083378;28;20254;-80
2021/01/11 06:30:42;;;;;;;55.50;29.00;;;1.00;99.90;;;;;;5082750;28;20692;-79
2021/01/11 06:33:10;;;;;;;53.20;29.63;;;1.00;99.90;;;;;;5075000;28;20189;-79
2021/01/11 06:35:38;;;;;;;48.67;23.50;;;1.00;99.90;;;;;;5083784;28;20220;-80
2021/01/11 06:38:11;;;;;;;52.58;28.50;;;1.00;99.90;;;;;;5082165;28;20215;-79
2021/01/11 06:40:37;;;;;;;66.03;32.08;;;1.00;99.90;;;;;;5083462;28;20205;-76
2021/01/11 06:43:04;;;;;;;54.35;26.70;;;1.00;99.90;;;;;;5082614;28;20199;-80
2021/01/11 06:45:39;;;;;;;50.55;29.25;;;1.00;99.90;;;;;;5082485;28;20199;-80
2021/01/11 06:48:06;;;;;;;56.08;30.05;;;1.10;99.90;;;;;;5082318;28;20226;-78
2021/01/11 06:50:33;;;;;;;61.92;31.23;;;1.10;99.90;;;;;;5084152;28;20253;-79
2021/01/11 06:53:00;;;;;;;54.17;30.48;;;1.10;99.90;;;;;;5081273;28;20223;-80
2021/01/11 06:55:28;;;;;;;60.33;28.95;;;1.10;99.90;;;;;;5053165;28;20197;-79
2021/01/11 06:57:56;;;;;;;55.13;26.30;;;1.20;99.90;;;;;;5052142;28;20206;-78
2021/01/11 07:00:30;;;;;;;57.95;32.97;;;1.10;99.90;;;;;;5055065;28;20202;-79
2021/01/11 07:02:56;;;;;;;50.95;26.25;;;1.20;99.90;;;;;;5064848;28;20204;-77
2021/01/11 07:05:53;;;;;;;48.15;28.25;;;1.20;99.90;;;;;;5075503;28;20206;-78
2021/01/11 07:08:21;;;;;;;57.50;32.20;;;1.20;99.90;;;;;;5013411;28;20304;-79
2021/01/11 07:11:03;;;;;;;35.65;20.23;;;1.20;99.90;;;;;;5061737;28;20203;-79
2021/01/11 07:13:31;;;;;;;39.35;23.67;;;1.20;99.90;;;;;;5059536;28;20193;-79
2021/01/11 07:16:13;;;;;;;40.22;22.10;;;1.20;99.90;;;;;;5054720;28;20200;-79
2021/01/11 07:19:00;;;;;;;50.17;29.55;;;1.20;99.90;;;;;;5055743;28;20216;-79
2021/01/11 07:21:26;;;;;;;45.80;27.95;;;1.30;99.90;;;;;;5053198;28;20560;-79
2021/01/11 07:23:55;;;;;;;37.40;25.08;;;1.30;99.90;;;;;;5058349;28;20202;-80
2021/01/11 07:26:24;;;;;;;41.53;24.38;;;1.30;99.90;;;;;;5058022;28;20226;-79
2021/01/11 07:28:56;;;;;;;43.85;26.42;;;1.30;99.90;;;;;;5057979;28;20221;-79
2021/01/11 07:31:24;;;;;;;37.58;25.15;;;1.30;99.90;;;;;;5062505;28;20668;-78
2021/01/11 07:34:01;;;;;;;33.17;16.77;;;1.30;99.90;;;;;;5067569;28;20199;-79
2021/01/11 07:36:33;;;;;;;40.65;22.13;;;1.30;99.90;;;;;;5075792;28;20617;-78
2021/01/11 07:39:16;;;;;;;46.88;28.35;;;1.30;99.90;;;;;;5076143;28;20217;-79
2021/01/11 07:41:45;;;;;;;40.80;23.75;;;1.30;99.90;;;;;;5076098;28;20258;-78
2021/01/11 07:44:20;;;;;;;43.22;24.38;;;1.30;99.90;;;;;;5076177;28;20229;-80
2021/01/11 07:46:58;;;;;;;42.58;23.80;;;1.30;99.90;;;;;;5075894;28;20188;-76
2021/01/11 07:49:25;;;;;;;32.65;18.02;;;1.30;99.90;;;;;;5066214;28;20212;-79
2021/01/11 07:51:52;;;;;;;49.28;26.73;;;1.30;99.90;;;;;;5056378;28;20201;-79
2021/01/11 07:54:19;;;;;;;42.65;26.52;;;1.30;99.90;;;;;;5056775;28;20192;-79
2021/01/11 07:56:48;;;;;;;40.05;23.33;;;1.30;99.90;;;;;;5055084;28;20212;-77
2021/01/11 07:59:15;;;;;;;44.53;24.90;;;1.30;99.90;;;;;;5055973;28;20297;-78
2021/01/11 08:01:42;;;;;;;41.75;25.00;;;1.30;99.90;;;;;;5061707;28;20192;-77
2021/01/11 08:04:10;;;;;;;42.50;24.90;;;1.30;99.90;;;;;;5066950;28;20203;-79
2021/01/11 08:06:54;;;;;;;46.58;27.38;;;1.30;99.90;;;;;;5074726;28;20196;-79
2021/01/11 08:09:23;;;;;;;45.47;24.08;;;1.30;99.90;;;;;;5075726;28;20220;-78
2021/01/11 08:12:04;;;;;;;31.92;18.98;;;1.30;99.90;;;;;;5074355;28;20212;-78
2021/01/11 08:14:30;;;;;;;47.28;26.30;;;1.30;99.90;;;;;;5075219;28;20192;-78
2021/01/11 08:16:56;;;;;;;30.90;19.17;;;1.30;99.90;;;;;;5074606;28;20203;-78
2021/01/11 08:19:23;;;;;;;43.33;25.55;;;1.40;99.90;;;;;;5074387;28;20212;-78
2021/01/11 08:21:56;;;;;;;29.02;19.02;;;1.30;99.90;;;;;;5074470;28;20196;-78
2021/01/11 08:24:22;;;;;;;39.28;24.20;;;1.30;99.90;;;;;;5074062;28;20206;-78
2021/01/11 08:27:06;;;;;;;35.15;21.13;;;1.30;99.90;;;;;;5074020;28;20195;-77
2021/01/11 08:29:37;;;;;;;33.05;20.40;;;1.30;99.90;;;;;;5074954;28;20629;-79
2021/01/11 08:32:05;;;;;;;36.00;23.27;;;1.30;99.90;;;;;;5067675;28;20200;-77
2021/01/11 08:34:31;;;;;;;36.45;21.38;;;1.30;99.90;;;;;;5054112;28;20723;-78
2021/01/11 08:36:59;;;;;;;38.83;22.30;;;1.30;99.90;;;;;;5053944;28;20245;-78
2021/01/11 08:39:25;;;;;;;42.25;20.58;;;1.40;99.90;;;;;;5054616;28;20249;-78
2021/01/11 08:41:54;;;;;;;35.72;22.05;;;1.30;99.90;;;;;;5054932;28;20261;-78
2021/01/11 08:44:29;;;;;;;38.00;20.90;;;1.30;99.90;;;;;;5053532;28;20257;-78
2021/01/11 08:47:02;;;;;;;33.05;20.15;;;1.40;99.90;;;;;;5053680;28;20245;-79
2021/01/11 08:49:28;;;;;;;36.53;20.90;;;1.30;99.90;;;;;;5055018;28;20220;-78
2021/01/11 08:52:06;;;;;;;33.88;18.50;;;1.40;99.90;;;;;;5054554;28;20206;-79
2021/01/11 08:54:33;;;;;;;34.28;19.75;;;1.40;99.90;;;;;;5055208;28;20548;-79
2021/01/11 08:57:08;;;;;;;36.70;22.48;;;1.50;99.90;;;;;;5053826;28;20717;-79
2021/01/11 08:59:35;;;;;;;37.63;21.77;;;1.40;99.90;;;;;;5054675;28;20217;-80
2021/01/11 09:02:01;;;;;;;25.80;13.93;;;1.50;99.90;;;;;;5063506;28;20204;-78
2021/01/11 09:04:32;;;;;;;27.92;19.58;;;1.50;99.90;;;;;;5054642;28;20216;-78
2021/01/11 09:07:04;;;;;;;42.50;22.83;;;1.50;99.90;;;;;;5053629;28;20192;-80
2021/01/11 09:09:31;;;;;;;32.72;20.33;;;1.50;99.90;;;;;;5057313;28;20221;-78
2021/01/11 09:12:05;;;;;;;31.73;18.80;;;1.50;99.90;;;;;;5058859;28;20201;-79
2021/01/11 09:14:32;;;;;;;30.10;15.45;;;1.50;99.90;;;;;;5058180;28;20201;-79
2021/01/11 09:17:03;;;;;;;34.40;20.70;;;1.40;99.90;;;;;;5057602;28;20216;-80
2021/01/11 09:19:29;;;;;;;25.77;15.70;;;1.50;99.90;;;;;;5058065;28;20558;-78
2021/01/11 09:22:01;;;;;;;35.20;19.33;;;1.40;99.90;;;;;;5057379;28;20197;-79
2021/01/11 09:24:28;;;;;;;36.50;18.25;;;1.40;99.90;;;;;;5058270;28;20201;-79
2021/01/11 09:26:55;;;;;;;30.67;19.48;;;1.40;99.90;;;;;;5057593;28;20224;-78
2021/01/11 09:29:21;;;;;;;32.25;19.55;;;1.50;99.90;;;;;;5056415;28;20290;-78
2021/01/11 09:31:48;;;;;;;32.70;18.05;;;1.50;99.90;;;;;;5063285;28;20244;-77
2021/01/11 09:34:16;;;;;;;33.00;20.20;;;1.50;99.90;;;;;;5055237;28;20203;-78
2021/01/11 09:36:44;;;;;;;31.75;17.45;;;1.50;99.90;;;;;;5054948;28;20184;-78
2021/01/11 09:39:11;;;;;;;32.60;19.30;;;1.50;99.90;;;;;;5057919;28;20213;-79
2021/01/11 09:41:46;;;;;;;22.33;12.90;;;1.60;99.90;;;;;;5058117;28;20193;-79
2021/01/11 09:44:13;;;;;;;27.92;15.32;;;1.60;99.90;;;;;;5056467;28;20200;-78
2021/01/11 09:46:44;;;;;;;30.92;14.32;;;1.60;99.90;;;;;;5055979;28;20506;-79
2021/01/11 09:49:11;;;;;;;29.38;15.73;;;1.70;99.90;;;;;;5055105;28;20232;-76
2021/01/11 09:51:38;;;;;;;26.40;15.82;;;1.70;99.90;;;;;;5058619;28;20188;-78
2021/01/11 09:54:05;;;;;;;36.20;18.88;;;1.70;99.90;;;;;;5074227;28;20203;-78
2021/01/11 09:56:32;;;;;;;29.67;16.95;;;1.70;99.90;;;;;;5076902;28;20210;-78
2021/01/11 09:58:58;;;;;;;27.15;14.07;;;1.70;99.90;;;;;;5076392;28;20235;-78
2021/01/11 10:01:24;;;;;;;18.90;11.77;;;1.70;99.90;;;;;;5071514;28;20193;-77
2021/01/11 10:03:50;;;;;;;27.95;16.95;;;1.60;99.90;;;;;;5068465;28;20197;-77
2021/01/11 10:06:17;;;;;;;29.38;14.45;;;1.60;99.90;;;;;;5076687;28;20282;-78
2021/01/11 10:08:44;;;;;;;27.15;16.52;;;1.70;99.90;;;;;;5077739;28;20221;-77
2021/01/11 10:11:14;;;;;;;29.80;14.43;;;1.70;99.90;;;;;;5082263;28;20200;-77
2021/01/11 10:13:41;;;;;;;24.08;15.10;;;1.70;99.90;;;;;;5079000;28;20295;-77
2021/01/11 10:16:07;;;;;;;29.33;13.43;;;1.80;99.90;;;;;;5075170;28;20200;-77
2021/01/11 10:18:34;;;;;;;22.23;13.57;;;1.80;99.90;;;;;;5076539;28;20208;-77
2021/01/11 10:21:00;;;;;;;29.42;15.85;;;1.80;99.90;;;;;;5074592;28;20535;-78
2021/01/11 10:23:26;;;;;;;24.45;15.05;;;1.90;99.90;;;;;;5075927;28;20586;-77
2021/01/11 10:25:53;;;;;;;24.52;15.32;;;1.90;99.90;;;;;;5074978;28;20798;-77
2021/01/11 10:28:20;;;;;;;27.05;15.18;;;1.90;99.90;;;;;;5076044;28;20240;-78
2021/01/11 10:30:46;;;;;;;23.25;13.75;;;1.90;99.90;;;;;;5072784;28;20198;-78
2021/01/11 10:33:12;;;;;;;28.02;16.30;;;1.90;99.90;;;;;;5066787;28;20721;-78
2021/01/11 10:35:39;;;;;;;25.90;13.55;;;1.90;99.90;;;;;;5059828;28;20679;-79
2021/01/11 10:38:06;;;;;;;29.13;15.52;;;1.90;99.90;;;;;;5055335;28;20296;-77
2021/01/11 10:40:32;;;;;;;28.70;16.38;;;1.90;99.90;;;;;;5056373;28;20227;-78
2021/01/11 10:43:00;;;;;;;21.27;14.65;;;1.80;99.90;;;;;;5055429;28;20197;-78
2021/01/11 10:45:26;;;;;;;27.33;15.40;;;1.80;99.90;;;;;;5056292;28;20674;-77
2021/01/11 10:47:53;;;;;;;24.10;15.20;;;1.80;99.90;;;;;;5055589;28;20217;-77
2021/01/11 10:50:19;;;;;;;18.52;11.98;;;1.80;99.90;;;;;;5056696;28;20218;-78
2021/01/11 10:52:45;;;;;;;24.38;15.88;;;1.80;99.90;;;;;;5055825;28;20200;-78
2021/01/11 10:55:12;;;;;;;25.92;14.70;;;1.80;99.90;;;;;;5056557;28;20226;-78
2021/01/11 10:57:38;;;;;;;22.10;13.73;;;1.80;99.90;;;;;;5056345;28;20204;-78
2021/01/11 11:00:11;;;;;;;22.65;13.35;;;1.80;99.90;;;;;;5054329;28;20202;-77
2021/01/11 11:02:37;;;;;;;19.65;11.38;;;1.80;99.90;;;;;;5062771;28;20250;-78
2021/01/11 11:05:05;;;;;;;24.30;16.15;;;1.80;99.90;;;;;;5074029;28;20613;-77
2021/01/11 11:07:35;;;;;;;26.15;13.95;;;1.80;99.90;;;;;;5073886;28;20754;-76
2021/01/11 11:10:03;;;;;;;27.90;15.30;;;1.80;99.90;;;;;;5074272;28;20298;-78
2021/01/11 11:12:29;;;;;;;23.95;12.60;;;1.80;99.90;;;;;;5074907;28;20200;-77
2021/01/11 11:14:58;;;;;;;25.45;11.90;;;1.70;99.90;;;;;;5074511;28;20198;-78
2021/01/11 11:17:28;;;;;;;23.45;13.52;;;1.80;99.90;;;;;;5076966;28;20200;-78
2021/01/11 11:19:54;;;;;;;20.77;13.55;;;1.80;99.90;;;;;;5076262;28;20217;-78
2021/01/11 11:22:20;;;;;;;27.20;15.75;;;1.80;99.90;;;;;;5076503;28;20272;-78
2021/01/11 11:24:46;;;;;;;21.95;12.93;;;1.80;99.90;;;;;;5075894;28;20200;-78
2021/01/11 11:27:13;;;;;;;20.60;13.00;;;1.80;99.90;;;;;;5074693;28;20196;-77
2021/01/11 11:29:39;;;;;;;21.30;13.77;;;1.80;99.90;;;;;;5077718;28;20728;-78
2021/01/11 11:32:05;;;;;;;18.98;11.18;;;1.80;99.90;;;;;;5072984;28;20206;-78
2021/01/11 11:34:32;;;;;;;22.70;13.32;;;1.90;99.90;;;;;;5056531;28;20215;-78
2021/01/11 11:36:59;;;;;;;20.23;12.38;;;1.90;99.90;;;;;;5055960;28;20189;-78
2021/01/11 11:39:25;;;;;;;24.40;13.25;;;1.90;99.90;;;;;;5058822;28;20565;-78
2021/01/11 11:41:56;;;;;;;19.08;11.52;;;1.90;99.90;;;;;;5058208;28;20266;-79
2021/01/11 11:44:22;;;;;;;19.98;12.93;;;1.90;99.90;;;;;;5057395;28;20201;-79
2021/01/11 11:46:49;;;;;;;20.95;12.98;;;1.90;99.90;;;;;;5057383;28;20214;-77
2021/01/11 11:49:16;;;;;;;19.23;10.68;;;2.00;99.90;;;;;;5057214;28;20275;-77
2021/01/11 11:51:44;;;;;;;11.85;8.82;;;2.00;99.90;;;;;;5056334;28;20678;-77
2021/01/11 11:54:10;;;;;;;18.65;11.88;;;2.00;99.90;;;;;;5053627;28;20193;-78
2021/01/11 11:56:39;;;;;;;19.08;12.25;;;2.00;99.90;;;;;;5037090;28;20198;-79
2021/01/11 11:59:06;;;;;;;14.73;10.10;;;2.10;99.90;;;;;;5055593;28;20217;-79
2021/01/11 12:01:36;;;;;;;24.38;10.70;;;2.10;99.90;;;;;;5062313;28;20602;-78
2021/01/11 12:04:02;;;;;;;14.80;8.98;;;2.10;99.90;;;;;;5069241;28;20195;-79
2021/01/11 12:06:40;;;;;;;16.85;8.95;;;2.20;99.90;;;;;;5075245;28;20198;-78
2021/01/11 12:09:08;;;;;;;19.17;12.20;;;2.20;99.90;;;;;;5074816;28;20224;-78
2021/01/11 12:11:44;;;;;;;15.75;10.55;;;2.30;99.90;;;;;;5075606;28;20199;-78
2021/01/11 12:14:11;;;;;;;18.13;10.75;;;2.40;99.90;;;;;;5078553;28;20171;-79
2021/01/11 12:16:37;;;;;;;20.42;10.35;;;2.40;99.90;;;;;;5076657;28;20197;-78
2021/01/11 12:19:04;;;;;;;18.30;10.82;;;2.40;99.90;;;;;;5076181;28;20213;-78
2021/01/11 12:21:32;;;;;;;14.85;8.85;;;2.40;99.90;;;;;;5076188;28;20204;-79
2021/01/11 12:23:58;;;;;;;10.20;7.00;;;2.40;99.90;;;;;;5074657;28;20198;-77
2021/01/11 12:26:25;;;;;;;16.52;9.32;;;2.50;99.90;;;;;;5075803;28;20197;-78
2021/01/11 12:28:52;;;;;;;18.92;10.20;;;2.40;99.90;;;;;;5074758;28;20224;-78
2021/01/11 12:31:26;;;;;;;13.15;9.00;;;2.40;99.90;;;;;;5073706;28;20231;-78
2021/01/11 12:33:52;;;;;;;13.20;8.50;;;2.50;99.90;;;;;;5065062;28;20188;-78
2021/01/11 12:36:22;;;;;;;17.40;9.90;;;2.50;99.90;;;;;;5054642;28;20301;-77
2021/01/11 12:38:48;;;;;;;14.63;10.15;;;2.50;99.90;;;;;;5055230;28;20561;-78
2021/01/11 12:41:17;;;;;;;17.73;10.25;;;2.50;99.90;;;;;;5055545;28;20266;-78
2021/01/11 12:43:44;;;;;;;13.38;10.23;;;2.50;99.90;;;;;;5057661;28;20568;-78
2021/01/11 12:46:11;;;;;;;13.13;8.32;;;2.60;99.90;;;;;;5058905;28;20251;-78